Platteville, Wisconsin
Current Conditions -  °F | °C
As of 2:35 PM on Friday 28 Nov 2014 (Local Time) from KPVB Reporting Station
Clear Clear  
Wind Chill: 19°   Ceiling: Unl
Heat Index: 28°   Visibility: 10mi
Dew Point: 21°   Wind: 8mph
Humidity: 77%   Direction: 140°SE
Pressure: 29.92"   Gusts: NA
Location:  42.74°N, 90.48°W
Report Text: KPVB 282035Z AUTO 14007KT 10SM CLR M02/M06 A2992 RMK AO1 T10251061
Loading
Personal Weather Stations






























Interactive Weather Map New forecast layout! Learn more

10-Day Weather Forecast

Advertisements
Track Severe Weather on mobile